Time;durP1;ratioP1;P1;durP2;ratioP2;P2;SDS_P1;SDS_P2;PMS_P1;PMS_P2;Temp;Humidity;BMP_temperature;BMP_pressure;BME280_temperature;BME280_humidity;BME280_pressure;Samples;Min_cycle;Max_cycle;Signal;HPM_P1;HPM_P2
2022/03/26 00:02:10;;;;;;;;;65.50;51.50;24.80;99.90;;;;;;5054019;28;8786;-67
2022/03/26 00:04:36;;;;;;;;;66.50;52.75;24.90;99.90;;;;;;5037048;28;9656;-73
2022/03/26 00:07:03;;;;;;;;;67.50;53.50;24.90;99.90;;;;;;5037773;28;8721;-74
2022/03/26 00:09:30;;;;;;;;;61.00;48.60;24.70;99.90;;;;;;5036634;28;8760;-74
2022/03/26 00:11:57;;;;;;;;;62.00;50.00;24.90;99.90;;;;;;5036962;28;8822;-72
2022/03/26 00:14:24;;;;;;;;;62.80;50.60;24.90;99.90;;;;;;5036743;28;8795;-71
2022/03/26 00:16:51;;;;;;;;;69.20;54.20;24.90;99.90;;;;;;5037329;28;8737;-68
2022/03/26 00:19:18;;;;;;;;;70.20;55.80;24.90;99.90;;;;;;5057358;28;8735;-70
2022/03/26 00:21:46;;;;;;;;;79.00;63.20;25.00;99.90;;;;;;5039090;28;8781;-72
2022/03/26 00:24:12;;;;;;;;;81.40;59.80;24.90;99.90;;;;;;5057271;28;8727;-70
2022/03/26 00:26:39;;;;;;;;;70.20;55.60;25.00;99.90;;;;;;5056905;28;8807;-74
2022/03/26 00:29:08;;;;;;;;;71.00;55.20;25.20;99.90;;;;;;5057810;28;8778;-71
2022/03/26 00:31:37;;;;;;;;;66.20;52.40;25.20;99.90;;;;;;5039097;28;8765;-70
2022/03/26 00:34:09;;;;;;;;;72.80;56.20;25.20;99.90;;;;;;5053972;28;8713;-69
2022/03/26 00:36:38;;;;;;;;;66.00;52.00;25.00;99.90;;;;;;5036573;28;8726;-70
2022/03/26 00:39:05;;;;;;;;;67.20;53.40;24.90;99.90;;;;;;5036887;28;8704;-75
2022/03/26 00:41:32;;;;;;;;;62.20;49.20;25.00;99.90;;;;;;5036597;28;8742;-75
2022/03/26 00:43:59;;;;;;;;;64.80;52.00;25.00;99.90;;;;;;5036569;28;8731;-72
2022/03/26 00:46:25;;;;;;;;;61.60;50.00;25.00;99.90;;;;;;5036447;28;8750;-67
2022/03/26 00:48:52;;;;;;;;;70.00;54.00;25.00;99.90;;;;;;5053789;28;9422;-71
2022/03/26 00:51:19;;;;;;;;;71.40;55.00;25.20;99.90;;;;;;5056517;28;8872;-70
2022/03/26 00:53:46;;;;;;;;;73.00;60.40;25.20;99.90;;;;;;5038476;28;8774;-69
2022/03/26 00:56:13;;;;;;;;;67.80;51.80;25.20;99.90;;;;;;5056612;28;9066;-70
2022/03/26 00:58:40;;;;;;;;;66.60;51.00;25.20;99.90;;;;;;5056123;28;13878;-69
2022/03/26 01:01:07;;;;;;;;;66.20;51.40;25.30;99.90;;;;;;5072969;28;8765;-69
2022/03/26 01:03:34;;;;;;;;;66.80;51.60;25.30;99.90;;;;;;5041181;28;8772;-72
2022/03/26 01:06:01;;;;;;;;;62.60;50.60;25.30;99.90;;;;;;5036378;28;9119;-71
2022/03/26 01:08:28;;;;;;;;;63.20;51.20;25.30;99.90;;;;;;5035107;28;8745;-70
2022/03/26 01:10:54;;;;;;;;;66.00;52.75;25.50;99.90;;;;;;5036151;28;8764;-70
2022/03/26 01:13:23;;;;;;;;;63.20;51.00;25.60;99.90;;;;;;5036768;28;8749;-67
2022/03/26 01:15:49;;;;;;;;;59.75;49.50;25.60;99.90;;;;;;5051660;28;8736;-72
2022/03/26 01:18:16;;;;;;;;;63.60;51.20;25.50;99.90;;;;;;5048592;28;8803;-59
2022/03/26 01:20:43;;;;;;;;;62.00;49.50;25.60;99.90;;;;;;5056171;28;8781;-72
2022/03/26 01:23:10;;;;;;;;;62.75;50.25;25.50;99.90;;;;;;5056117;28;8766;-74
2022/03/26 01:25:37;;;;;;;;;68.75;53.50;25.70;99.90;;;;;;5071279;28;8742;-70
2022/03/26 01:28:04;;;;;;;;;67.20;53.80;25.70;99.90;;;;;;5039214;28;8801;-73
2022/03/26 01:30:30;;;;;;;;;68.00;53.00;25.70;99.90;;;;;;5055480;28;8770;-66
2022/03/26 01:32:57;;;;;;;;;62.20;49.00;25.90;99.90;;;;;;5029296;28;8789;-52
2022/03/26 01:35:24;;;;;;;;;66.60;52.60;25.90;99.90;;;;;;5036024;28;8804;-65
2022/03/26 01:37:51;;;;;;;;;67.00;53.60;25.90;99.90;;;;;;5036232;28;8744;-74
2022/03/26 01:40:17;;;;;;;;;55.25;45.00;25.90;99.90;;;;;;5019304;28;8753;-72
2022/03/26 01:42:44;;;;;;;;;58.25;47.50;25.90;99.90;;;;;;5036176;28;8751;-72
2022/03/26 01:45:12;;;;;;;;;64.75;49.50;26.10;99.90;;;;;;5036160;28;8744;-68
2022/03/26 01:47:39;;;;;;;;;64.50;51.00;26.10;99.90;;;;;;5042985;28;8787;-64
2022/03/26 01:50:06;;;;;;;;;58.75;46.25;26.20;99.90;;;;;;5059349;28;8758;-54
2022/03/26 01:52:33;;;;;;;;;61.75;48.75;26.20;99.90;;;;;;5059380;28;8742;-72
2022/03/26 01:55:00;;;;;;;;;63.25;50.00;26.30;99.90;;;;;;5060269;28;8747;-74
2022/03/26 01:57:27;;;;;;;;;60.00;49.00;26.30;99.90;;;;;;5059604;28;8731;-71
2022/03/26 01:59:53;;;;;;;;;61.00;49.25;26.40;99.90;;;;;;5042308;28;8789;-64
2022/03/26 02:02:20;;;;;;;;;61.00;50.50;26.40;99.90;;;;;;5037564;28;8765;-63
2022/03/26 02:04:47;;;;;;;;;58.25;47.00;26.40;99.90;;;;;;5039789;28;8749;-59
2022/03/26 02:07:14;;;;;;;;;54.25;43.00;26.40;99.90;;;;;;5040495;28;8725;-72
2022/03/26 02:09:43;;;;;;;;;57.00;46.25;26.50;99.90;;;;;;5039385;28;8725;-72
2022/03/26 02:12:25;;;;;;;;;55.75;45.50;26.60;99.90;;;;;;5039746;28;9374;-49
2022/03/26 02:14:52;;;;;;;;;56.25;46.00;26.70;99.90;;;;;;5039811;28;8725;-55
2022/03/26 02:17:19;;;;;;;;;59.00;46.25;26.80;99.90;;;;;;5043136;28;8790;-70
2022/03/26 02:19:53;;;;;;;;;60.00;47.50;26.80;99.90;;;;;;5058825;28;8758;-72
2022/03/26 02:22:21;;;;;;;;;53.50;44.00;26.90;99.90;;;;;;5059010;28;8731;-66
2022/03/26 02:24:48;;;;;;;;;53.00;43.75;26.90;99.90;;;;;;5059193;28;8724;-71
2022/03/26 02:27:21;;;;;;;;;55.00;43.50;26.90;99.90;;;;;;5074460;28;9140;-72
2022/03/26 02:29:49;;;;;;;;;55.50;45.25;27.00;99.90;;;;;;5058373;28;9422;-58
2022/03/26 02:32:21;;;;;;;;;50.00;41.67;27.00;99.90;;;;;;5054669;28;8795;-67
2022/03/26 02:34:49;;;;;;;;;50.00;41.25;27.10;99.90;;;;;;5038728;28;8756;-73
2022/03/26 02:37:16;;;;;;;;;49.00;40.75;27.20;99.90;;;;;;5039575;28;8745;-71
2022/03/26 02:39:43;;;;;;;;;51.25;43.00;27.30;99.90;;;;;;5021298;28;8853;-59
2022/03/26 02:42:10;;;;;;;;;46.00;34.50;27.50;99.90;;;;;;5038447;28;8733;-63
2022/03/26 02:44:37;;;;;;;;;47.75;39.50;27.50;99.90;;;;;;5038574;28;8756;-74
2022/03/26 02:47:05;;;;;;;;;46.00;39.50;27.50;99.90;;;;;;5023421;28;8765;-72
2022/03/26 02:49:31;;;;;;;;;43.00;34.75;27.50;99.90;;;;;;5058392;28;8731;-64
2022/03/26 02:51:58;;;;;;;;;43.25;36.75;27.60;99.90;;;;;;5059197;28;8727;-65
2022/03/26 02:54:25;;;;;;;;;44.50;37.25;27.70;99.90;;;;;;5058259;28;8750;-72
2022/03/26 02:56:54;;;;;;;;;42.25;36.50;27.80;99.90;;;;;;5040609;28;8715;-68
2022/03/26 02:59:21;;;;;;;;;30.50;30.00;27.80;99.90;;;;;;5057763;28;8741;-67
2022/03/26 03:01:48;;;;;;;;;33.50;31.00;27.90;99.90;;;;;;5040726;28;8774;-67
2022/03/26 03:04:16;;;;;;;;;39.00;34.50;27.90;99.90;;;;;;5039070;28;8718;-70
2022/03/26 03:06:43;;;;;;;;;36.75;32.75;27.80;99.90;;;;;;5021182;28;8850;-69
2022/03/26 03:09:12;;;;;;;;;42.25;35.75;28.00;99.90;;;;;;5038036;28;8808;-68
2022/03/26 03:11:39;;;;;;;;;45.00;35.50;28.20;99.90;;;;;;5053482;28;9060;-70
2022/03/26 03:14:10;;;;;;;;;35.25;32.25;28.20;99.90;;;;;;5038234;28;8792;-70
2022/03/26 03:16:37;;;;;;;;;37.75;33.25;28.30;99.90;;;;;;5037978;28;8946;-66
2022/03/26 03:19:04;;;;;;;;;37.50;33.25;28.40;99.90;;;;;;5057236;28;8790;-72
2022/03/26 03:21:31;;;;;;;;;40.75;34.00;28.30;99.90;;;;;;5040149;28;8762;-73
2022/03/26 03:23:58;;;;;;;;;32.50;26.50;28.20;99.90;;;;;;5073066;28;9462;-67
2022/03/26 03:26:25;;;;;;;;;34.25;29.75;28.10;99.90;;;;;;5057728;28;8779;-59
2022/03/26 03:28:51;;;;;;;;;40.50;34.00;28.20;99.90;;;;;;5058339;28;8774;-68
2022/03/26 03:31:18;;;;;;;;;40.25;34.75;28.40;99.90;;;;;;5040308;28;8791;-72
2022/03/26 03:33:46;;;;;;;;;37.25;34.00;28.60;99.90;;;;;;5041692;28;8781;-74
2022/03/26 03:36:13;;;;;;;;;37.50;33.00;28.60;99.90;;;;;;5020289;28;8773;-62
2022/03/26 03:38:40;;;;;;;;;36.00;33.00;28.70;99.90;;;;;;5037760;28;8779;-75
2022/03/26 03:41:07;;;;;;;;;36.25;33.25;28.80;99.90;;;;;;5019937;28;8771;-61
2022/03/26 03:43:33;;;;;;;;;39.25;33.25;28.70;99.90;;;;;;5028567;28;8799;-67
2022/03/26 03:46:00;;;;;;;;;35.50;31.25;28.90;99.90;;;;;;5052082;28;8741;-70
2022/03/26 03:48:28;;;;;;;;;38.75;33.75;28.90;99.90;;;;;;5050714;28;8762;-70
2022/03/26 03:50:54;;;;;;;;;36.00;32.75;29.10;99.90;;;;;;5072857;28;8766;-68
2022/03/26 03:53:21;;;;;;;;;41.75;33.75;29.00;99.90;;;;;;5057170;28;8771;-64
2022/03/26 03:55:48;;;;;;;;;35.00;31.75;29.10;99.90;;;;;;5057216;28;8755;-72
2022/03/26 03:58:14;;;;;;;;;41.00;35.25;29.00;99.90;;;;;;5057755;28;8719;-54
2022/03/26 04:00:41;;;;;;;;;42.50;35.75;29.10;99.90;;;;;;5057329;28;8735;-72
2022/03/26 04:03:10;;;;;;;;;34.50;31.50;29.10;99.90;;;;;;5046100;28;8781;-73
2022/03/26 04:05:37;;;;;;;;;34.75;32.25;29.20;99.90;;;;;;5052426;28;8769;-63
2022/03/26 04:08:03;;;;;;;;;39.25;32.25;29.30;99.90;;;;;;5037100;28;8875;-74
2022/03/26 04:10:30;;;;;;;;;42.75;35.75;29.30;99.90;;;;;;5036589;28;8757;-74
2022/03/26 04:12:57;;;;;;;;;37.00;32.00;29.40;99.90;;;;;;5036377;28;8810;-55
2022/03/26 04:15:24;;;;;;;;;17.75;17.00;29.40;99.90;;;;;;5019525;28;8741;-48
2022/03/26 04:17:52;;;;;;;;;32.75;30.25;29.40;99.90;;;;;;5045194;28;8743;-74
2022/03/26 04:20:19;;;;;;;;;36.25;31.00;29.40;99.90;;;;;;5056780;28;8890;-72
2022/03/26 04:22:45;;;;;;;;;37.25;31.25;29.20;99.90;;;;;;5039070;28;8758;-72
2022/03/26 04:25:12;;;;;;;;;31.25;29.75;29.30;99.90;;;;;;5057470;28;8723;-60
2022/03/26 04:27:43;;;;;;;;;40.50;32.50;29.50;99.90;;;;;;5056459;28;8806;-73
2022/03/26 04:30:11;;;;;;;;;31.25;30.25;29.60;99.90;;;;;;5039151;28;8768;-46
2022/03/26 04:32:39;;;;;;;;;35.00;29.75;29.40;99.90;;;;;;5048844;28;8858;-73
2022/03/26 04:35:06;;;;;;;;;34.00;30.75;29.60;99.90;;;;;;5036760;28;8745;-67
2022/03/26 04:37:39;;;;;;;;;35.25;31.25;29.80;99.90;;;;;;5036736;28;8737;-72
2022/03/26 04:40:08;;;;;;;;;33.50;30.00;30.00;99.50;;;;;;5037255;28;8795;-63
2022/03/26 04:42:35;;;;;;;;;34.25;32.00;29.80;99.90;;;;;;5036398;28;8733;-64
2022/03/26 04:45:01;;;;;;;;;34.50;31.00;29.80;99.90;;;;;;5036607;28;8877;-70
2022/03/26 04:47:28;;;;;;;;;36.25;31.75;30.00;99.90;;;;;;5041650;28;8746;-49
2022/03/26 04:49:55;;;;;;;;;36.50;33.25;30.20;99.90;;;;;;5056512;28;8758;-63
2022/03/26 04:52:21;;;;;;;;;33.75;31.25;30.20;99.80;;;;;;5039054;28;8747;-67
2022/03/26 04:54:48;;;;;;;;;37.00;32.50;30.30;99.00;;;;;;5071866;28;8774;-61
2022/03/26 04:57:17;;;;;;;;;35.00;32.00;30.10;99.90;;;;;;5038666;28;8746;-63
2022/03/26 04:59:46;;;;;;;;;34.25;31.00;30.30;99.40;;;;;;5055775;28;9407;-73
2022/03/26 05:02:13;;;;;;;;;33.50;29.75;30.40;98.60;;;;;;5053134;28;8744;-54
2022/03/26 05:04:40;;;;;;;;;41.25;31.25;30.40;99.20;;;;;;5036264;28;8744;-65
2022/03/26 05:09:52;;;;;;;;;35.25;31.50;30.50;99.40;;;;;;5036623;28;8749;-75
2022/03/26 05:12:19;;;;;;;;;41.00;32.25;30.50;99.10;;;;;;5036027;28;9519;-68
2022/03/26 05:14:45;;;;;;;;;28.25;26.75;30.50;98.50;;;;;;5051581;28;8741;-64
2022/03/26 05:17:13;;;;;;;;;34.50;32.50;30.30;98.30;;;;;;5039454;28;8759;-59
2022/03/26 05:19:39;;;;;;;;;30.75;29.75;30.30;97.80;;;;;;5071553;28;8735;-75
2022/03/26 05:22:06;;;;;;;;;35.25;32.25;30.40;98.10;;;;;;5057286;28;8755;-63
2022/03/26 05:24:33;;;;;;;;;39.00;34.50;30.70;97.40;;;;;;5060034;28;8742;-62
2022/03/26 05:26:59;;;;;;;;;40.50;35.50;30.60;96.80;;;;;;5060024;28;8731;-73
2022/03/26 05:29:26;;;;;;;;;32.50;30.50;30.70;97.40;;;;;;5059714;28;8747;-69
2022/03/26 05:31:54;;;;;;;;;39.50;34.25;30.80;96.30;;;;;;5041584;28;8765;-71
2022/03/26 05:34:21;;;;;;;;;38.75;32.75;30.90;96.40;;;;;;5040261;28;8785;-68
2022/03/26 05:36:48;;;;;;;;;34.75;31.75;31.10;95.60;;;;;;5040173;28;9471;-72
2022/03/26 05:39:14;;;;;;;;;35.50;33.25;31.20;95.60;;;;;;5039972;28;8754;-68
2022/03/26 05:41:41;;;;;;;;;36.25;33.00;30.90;95.90;;;;;;5055130;28;8761;-69
2022/03/26 05:44:08;;;;;;;;;36.50;33.25;31.00;96.30;;;;;;5055392;28;9528;-68
2022/03/26 05:46:35;;;;;;;;;32.25;30.75;31.40;93.60;;;;;;5040174;28;8868;-69
2022/03/26 05:49:02;;;;;;;;;36.00;32.00;31.30;94.00;;;;;;5058457;28;8785;-70
2022/03/26 05:51:29;;;;;;;;;35.25;31.25;31.20;93.60;;;;;;5059280;28;8767;-70
2022/03/26 05:53:56;;;;;;;;;40.00;34.00;31.10;94.30;;;;;;5059551;28;8860;-68
2022/03/26 05:56:22;;;;;;;;;37.50;33.50;31.20;94.50;;;;;;5059181;28;8885;-72
2022/03/26 05:58:50;;;;;;;;;35.25;31.50;31.30;94.90;;;;;;5059368;28;8751;-72
2022/03/26 06:01:17;;;;;;;;;37.50;33.50;31.50;93.20;;;;;;5042285;28;8770;-67
2022/03/26 06:03:44;;;;;;;;;30.00;28.25;31.40;93.20;;;;;;5043084;28;9386;-72
2022/03/26 06:06:10;;;;;;;;;37.75;32.50;31.40;93.10;;;;;;5039384;28;9427;-68
2022/03/26 06:08:37;;;;;;;;;42.50;34.25;31.60;93.40;;;;;;5039109;28;8785;-72
2022/03/26 06:11:03;;;;;;;;;41.50;32.75;31.80;92.80;;;;;;5039028;28;8871;-73
2022/03/26 06:13:30;;;;;;;;;37.50;33.25;31.60;93.50;;;;;;5039029;28;8733;-67
2022/03/26 06:15:56;;;;;;;;;36.00;33.00;31.70;91.80;;;;;;5055550;28;8742;-70
2022/03/26 06:18:23;;;;;;;;;36.75;33.75;31.60;90.90;;;;;;5051685;28;8771;-73
2022/03/26 06:20:50;;;;;;;;;38.25;32.50;31.40;92.00;;;;;;5059393;28;8766;-65
2022/03/26 06:23:16;;;;;;;;;39.00;34.25;31.70;92.70;;;;;;5059138;28;8864;-67
2022/03/26 06:25:43;;;;;;;;;32.25;30.75;31.60;92.10;;;;;;5058821;28;8731;-72
2022/03/26 06:28:09;;;;;;;;;34.75;31.00;31.50;92.50;;;;;;5059697;28;8775;-73
2022/03/26 06:30:36;;;;;;;;;37.75;34.25;32.00;91.30;;;;;;5058283;28;8767;-71
2022/03/26 06:33:03;;;;;;;;;35.25;32.75;32.10;90.20;;;;;;5048425;28;8800;-69
2022/03/26 06:35:30;;;;;;;;;37.50;33.75;31.80;90.30;;;;;;5037897;28;8775;-72
2022/03/26 06:37:56;;;;;;;;;31.25;29.00;32.00;89.80;;;;;;5038920;28;8776;-72
2022/03/26 06:40:23;;;;;;;;;39.75;35.00;32.20;90.10;;;;;;5021448;28;8745;-70
2022/03/26 06:42:49;;;;;;;;;37.00;33.00;32.20;90.50;;;;;;5038939;28;8742;-73
2022/03/26 06:45:16;;;;;;;;;41.25;35.50;32.00;91.00;;;;;;5038728;28;8732;-68
2022/03/26 06:47:44;;;;;;;;;36.75;33.75;32.30;90.20;;;;;;5045915;28;8786;-70
2022/03/26 06:50:10;;;;;;;;;40.75;33.25;32.50;85.50;;;;;;5040941;28;9061;-72
2022/03/26 06:52:37;;;;;;;;;41.50;35.00;32.50;85.20;;;;;;5058209;28;8755;-69
2022/03/26 06:55:05;;;;;;;;;34.00;31.00;32.40;85.90;;;;;;5058990;28;8832;-72
2022/03/26 06:57:32;;;;;;;;;43.75;35.25;32.30;87.00;;;;;;5058330;28;8754;-69
2022/03/26 06:59:58;;;;;;;;;42.25;35.50;32.20;89.20;;;;;;5058223;28;9210;-70
2022/03/26 07:02:25;;;;;;;;;41.00;35.25;32.50;86.90;;;;;;5052944;28;8753;-69
2022/03/26 07:04:51;;;;;;;;;38.50;33.50;32.70;86.60;;;;;;5038256;28;8745;-70
2022/03/26 07:07:18;;;;;;;;;36.50;32.25;32.70;85.90;;;;;;5038842;28;8721;-68
2022/03/26 07:09:45;;;;;;;;;36.50;33.50;32.60;86.40;;;;;;5037893;28;8733;-70
2022/03/26 07:12:12;;;;;;;;;36.75;33.00;32.50;87.00;;;;;;5038041;28;8705;-70
2022/03/26 07:14:39;;;;;;;;;40.00;35.00;32.50;87.60;;;;;;5037797;28;8745;-71
2022/03/26 07:17:05;;;;;;;;;34.50;31.25;32.80;88.60;;;;;;5040517;28;8787;-68
2022/03/26 07:19:32;;;;;;;;;42.25;35.25;32.80;88.90;;;;;;5057317;28;8755;-71
2022/03/26 07:22:02;;;;;;;;;36.75;32.50;32.70;86.70;;;;;;5058399;28;8791;-69
2022/03/26 07:24:28;;;;;;;;;43.00;35.25;32.80;88.90;;;;;;5039877;28;8790;-71
2022/03/26 07:26:55;;;;;;;;;36.25;33.00;32.60;89.60;;;;;;5057719;28;8762;-71
2022/03/26 07:29:22;;;;;;;;;43.00;34.75;32.80;86.00;;;;;;5057559;28;8787;-69
2022/03/26 07:31:51;;;;;;;;;42.75;34.50;32.80;85.80;;;;;;5072324;28;8840;-69
2022/03/26 07:34:19;;;;;;;;;42.00;34.00;32.80;85.20;;;;;;5037757;28;8872;-68
2022/03/26 07:36:46;;;;;;;;;32.25;29.75;33.20;85.80;;;;;;5020265;28;8799;-72
2022/03/26 07:39:13;;;;;;;;;39.50;35.00;33.00;85.80;;;;;;5037663;28;8775;-69
2022/03/26 07:41:39;;;;;;;;;46.25;38.25;33.10;85.00;;;;;;5037196;28;8919;-69
2022/03/26 07:44:06;;;;;;;;;43.75;35.75;33.00;86.90;;;;;;5037427;28;8757;-71
2022/03/26 07:46:35;;;;;;;;;45.50;37.75;33.00;86.80;;;;;;5027922;28;8732;-69
2022/03/26 07:49:02;;;;;;;;;39.25;34.50;33.20;85.50;;;;;;5055899;28;8768;-72
2022/03/26 07:51:28;;;;;;;;;46.25;36.00;32.90;85.10;;;;;;5072722;28;8812;-66
2022/03/26 07:53:55;;;;;;;;;39.00;32.50;33.00;87.20;;;;;;5057297;28;8759;-72
2022/03/26 07:56:21;;;;;;;;;40.00;35.50;33.40;84.80;;;;;;5039304;28;8771;-71
2022/03/26 07:58:49;;;;;;;;;35.00;32.25;33.30;84.40;;;;;;5057292;28;8743;-66
2022/03/26 08:01:16;;;;;;;;;43.25;36.00;33.30;84.40;;;;;;5040344;28;8743;-70
2022/03/26 08:03:42;;;;;;;;;43.75;34.25;33.30;83.60;;;;;;5041161;28;8756;-73
2022/03/26 08:06:09;;;;;;;;;42.75;36.25;33.10;84.40;;;;;;5037238;28;8799;-67
2022/03/26 08:08:36;;;;;;;;;43.50;35.50;33.00;85.30;;;;;;5036920;28;8765;-67
2022/03/26 08:11:03;;;;;;;;;43.25;36.25;33.10;84.20;;;;;;5037008;28;8767;-72
2022/03/26 08:13:29;;;;;;;;;44.00;37.50;33.50;82.80;;;;;;5019213;28;8736;-68
2022/03/26 08:15:56;;;;;;;;;43.25;35.50;33.70;79.70;;;;;;5037435;28;8741;-66
2022/03/26 08:18:22;;;;;;;;;44.25;38.00;33.60;81.40;;;;;;5049305;28;9379;-73
2022/03/26 08:20:49;;;;;;;;;45.25;38.50;33.60;80.40;;;;;;5057053;28;8755;-71
2022/03/26 08:23:16;;;;;;;;;44.50;36.75;33.20;81.00;;;;;;5056943;28;9497;-66
2022/03/26 08:28:27;;;;;;;;;44.50;36.00;33.60;79.40;;;;;;5056386;28;8771;-69
2022/03/26 08:30:54;;;;;;;;;37.00;33.00;33.40;79.40;;;;;;5057278;28;8910;-67
2022/03/26 08:33:21;;;;;;;;;41.75;33.50;33.20;80.60;;;;;;5043936;28;8852;-71
2022/03/26 08:35:47;;;;;;;;;39.00;34.50;33.30;82.30;;;;;;5036864;28;9499;-68
2022/03/26 08:38:14;;;;;;;;;41.25;35.75;33.40;81.00;;;;;;5037031;28;8757;-72
2022/03/26 08:40:40;;;;;;;;;42.75;35.25;33.50;80.40;;;;;;5051818;28;8867;-69
2022/03/26 08:43:08;;;;;;;;;39.50;33.75;33.60;79.10;;;;;;5019876;28;8745;-63
2022/03/26 08:45:37;;;;;;;;;42.75;35.00;33.50;79.00;;;;;;5036443;28;8736;-73
2022/03/26 08:48:05;;;;;;;;;42.75;36.25;33.40;80.50;;;;;;5046448;28;8771;-72
2022/03/26 08:50:32;;;;;;;;;36.75;32.00;33.30;79.40;;;;;;5038376;28;8755;-59
2022/03/26 08:53:01;;;;;;;;;43.75;36.00;33.20;79.00;;;;;;5056723;28;8900;-72
2022/03/26 08:55:28;;;;;;;;;38.00;32.00;33.10;77.70;;;;;;5056067;28;9043;-71
2022/03/26 08:57:58;;;;;;;;;40.25;35.25;33.20;78.10;;;;;;5058719;28;8741;-74
2022/03/26 09:00:26;;;;;;;;;40.50;34.25;33.20;80.10;;;;;;5060674;28;8797;-72
2022/03/26 09:02:54;;;;;;;;;38.25;31.75;33.00;79.60;;;;;;5067217;28;8741;-73
2022/03/26 09:05:20;;;;;;;;;39.50;34.50;33.20;81.30;;;;;;5040401;28;8899;-48
2022/03/26 09:07:47;;;;;;;;;41.25;35.50;33.20;78.90;;;;;;5040386;28;9411;-52
2022/03/26 09:10:14;;;;;;;;;40.00;35.25;32.90;79.70;;;;;;5056420;28;8730;-69
2022/03/26 09:12:40;;;;;;;;;38.00;34.00;32.90;81.50;;;;;;5040097;28;8883;-65
2022/03/26 09:15:08;;;;;;;;;43.00;35.75;32.70;80.40;;;;;;5040569;28;8744;-72
2022/03/26 09:17:37;;;;;;;;;39.50;35.25;32.90;81.10;;;;;;5028192;28;8734;-67
2022/03/26 09:20:05;;;;;;;;;41.00;35.50;33.10;78.90;;;;;;5059944;28;8781;-61
2022/03/26 09:22:32;;;;;;;;;40.25;34.50;33.40;79.70;;;;;;5060256;28;8715;-72
2022/03/26 09:24:58;;;;;;;;;45.00;38.00;33.60;78.60;;;;;;5060710;28;8745;-73
2022/03/26 09:27:25;;;;;;;;;42.25;34.50;33.30;78.00;;;;;;5042198;28;8766;-64
2022/03/26 09:29:52;;;;;;;;;45.50;35.25;33.40;77.60;;;;;;5060064;28;8734;-68
2022/03/26 09:32:18;;;;;;;;;41.25;34.00;33.40;78.30;;;;;;5055578;28;8705;-70
2022/03/26 09:34:45;;;;;;;;;42.50;35.25;33.10;79.00;;;;;;5040099;28;8835;-69
2022/03/26 09:37:12;;;;;;;;;40.00;34.00;33.00;79.90;;;;;;5023009;28;8749;-68
2022/03/26 09:39:39;;;;;;;;;41.00;36.25;33.50;77.60;;;;;;5039750;28;9441;-71
2022/03/26 09:42:06;;;;;;;;;44.00;36.00;33.30;79.60;;;;;;5039967;28;9376;-61
2022/03/26 09:44:33;;;;;;;;;43.75;34.25;33.40;78.30;;;;;;5022019;28;8752;-72
2022/03/26 09:47:00;;;;;;;;;41.75;34.75;33.40;79.40;;;;;;5040935;28;8849;-72
2022/03/26 09:49:27;;;;;;;;;40.75;34.50;33.50;81.70;;;;;;5059882;28;8795;-66
2022/03/26 09:51:54;;;;;;;;;39.25;33.75;33.10;83.20;;;;;;5060574;28;8877;-74
2022/03/26 09:54:22;;;;;;;;;43.75;37.00;32.90;81.20;;;;;;5059318;28;8790;-52
2022/03/26 09:56:49;;;;;;;;;39.00;32.75;32.90;82.10;;;;;;5059779;28;8781;-63
2022/03/26 09:59:19;;;;;;;;;42.50;33.00;33.00;79.00;;;;;;5042299;28;8856;-51
2022/03/26 10:01:45;;;;;;;;;47.75;36.00;32.80;82.90;;;;;;5059202;28;9000;-50
2022/03/26 10:04:16;;;;;;;;;40.50;34.25;33.00;81.30;;;;;;5023073;28;8745;-75
2022/03/26 10:06:48;;;;;;;;;43.00;35.50;33.20;79.50;;;;;;5039522;28;8753;-61
2022/03/26 10:09:35;;;;;;;;;44.75;35.75;33.30;79.80;;;;;;5038499;28;8776;-73
2022/03/26 10:12:07;;;;;;;;;43.75;35.00;33.40;79.40;;;;;;5039288;28;9498;-69
2022/03/26 10:14:41;;;;;;;;;40.75;35.50;33.30;78.60;;;;;;5021284;28;10011;-71
2022/03/26 10:17:17;;;;;;;;;43.00;35.25;33.20;79.50;;;;;;5041919;28;8744;-72
2022/03/26 10:20:00;;;;;;;;;43.00;35.50;33.20;80.70;;;;;;5059415;28;9335;-66
2022/03/26 10:22:37;;;;;;;;;42.00;35.00;33.00;83.40;;;;;;5059083;28;8730;-71
2022/03/26 10:25:10;;;;;;;;;44.50;34.50;32.70;83.40;;;;;;5060054;28;8832;-64
2022/03/26 10:27:40;;;;;;;;;43.25;35.75;32.50;82.40;;;;;;5059092;28;8833;-73
2022/03/26 10:30:07;;;;;;;;;43.50;36.50;32.40;84.30;;;;;;5058949;28;8771;-74
2022/03/26 10:32:43;;;;;;;;;36.00;33.25;32.40;84.50;;;;;;5064696;28;8767;-69
2022/03/26 10:35:13;;;;;;;;;38.00;31.75;32.40;87.80;;;;;;5019664;28;8770;-69
2022/03/26 10:37:44;;;;;;;;;42.25;36.50;32.30;86.40;;;;;;5018658;28;8813;-73
2022/03/26 10:40:18;;;;;;;;;40.00;33.25;32.30;85.20;;;;;;5019943;28;8743;-71
2022/03/26 10:42:45;;;;;;;;;40.75;34.25;32.30;85.20;;;;;;5008777;28;8803;-64
2022/03/26 10:45:15;;;;;;;;;44.00;35.50;32.30;85.00;;;;;;5034120;28;8781;-74
2022/03/26 10:47:41;;;;;;;;;34.50;29.50;32.20;84.40;;;;;;5025743;28;8858;-72
2022/03/26 10:50:13;;;;;;;;;40.25;34.50;32.30;84.50;;;;;;5038548;28;8791;-54
2022/03/26 10:52:40;;;;;;;;;48.50;37.00;32.30;86.30;;;;;;5038542;28;8826;-69
2022/03/26 10:55:16;;;;;;;;;40.75;34.75;32.20;86.60;;;;;;5039388;28;8786;-72
2022/03/26 10:57:47;;;;;;;;;41.25;36.00;32.20;86.50;;;;;;5038333;28;8867;-66
2022/03/26 11:00:14;;;;;;;;;42.50;35.75;32.20;86.50;;;;;;5038383;28;8775;-59
2022/03/26 11:02:44;;;;;;;;;39.00;34.00;32.20;87.30;;;;;;5030211;28;8795;-46
2022/03/26 11:05:11;;;;;;;;;40.25;35.75;32.20;87.00;;;;;;5018498;28;8787;-74
2022/03/26 11:07:40;;;;;;;;;40.25;35.50;32.20;89.50;;;;;;5018118;28;8767;-75
2022/03/26 11:10:09;;;;;;;;;41.75;35.50;32.20;86.30;;;;;;5018703;28;8791;-69
2022/03/26 11:12:54;;;;;;;;;38.00;33.00;32.10;85.10;;;;;;5018328;28;8771;-74
2022/03/26 11:15:31;;;;;;;;;44.25;38.25;32.10;87.30;;;;;;5017663;28;8806;-57
2022/03/26 11:18:07;;;;;;;;;44.25;37.00;32.10;87.10;;;;;;5026420;28;8741;-72
2022/03/26 11:21:11;;;;;;;;;46.00;38.75;32.00;85.00;;;;;;5037743;28;9397;-72
2022/03/26 11:24:05;;;;;;;;;48.00;40.25;32.00;84.50;;;;;;5018499;28;8786;-73
2022/03/26 11:26:59;;;;;;;;;43.00;35.25;32.00;85.00;;;;;;5037920;28;8748;-74
2022/03/26 11:29:41;;;;;;;;;45.50;38.50;32.00;86.10;;;;;;5036773;28;8815;-73
2022/03/26 11:32:12;;;;;;;;;48.75;40.25;32.00;88.70;;;;;;5051207;28;8790;-47
2022/03/26 11:34:39;;;;;;;;;54.00;44.00;31.90;90.10;;;;;;5037897;28;8780;-67
2022/03/26 11:37:21;;;;;;;;;55.25;42.25;31.80;89.90;;;;;;5038068;28;8737;-73
2022/03/26 11:39:49;;;;;;;;;52.75;43.00;31.80;91.30;;;;;;5020503;28;9455;-75
2022/03/26 11:42:24;;;;;;;;;47.50;39.50;31.80;91.10;;;;;;5053058;28;8769;-73
2022/03/26 11:50:42;;;;;;;;;47.75;38.75;31.70;94.00;;;;;;5057383;28;8771;-73
2022/03/26 11:53:14;;;;;;;;;49.75;41.00;31.60;94.50;;;;;;5072677;28;8755;-72
2022/03/26 11:55:45;;;;;;;;;49.75;40.75;31.50;94.50;;;;;;5057579;28;8727;-74
2022/03/26 11:58:24;;;;;;;;;42.50;35.00;31.50;94.30;;;;;;5058613;28;8735;-74
2022/03/26 12:01:04;;;;;;;;;46.50;37.25;31.50;94.70;;;;;;5040515;28;8755;-73
2022/03/26 12:03:40;;;;;;;;;49.25;36.50;31.50;93.80;;;;;;5043399;28;8773;-47
2022/03/26 12:08:55;;;;;;;;;47.50;38.50;31.40;93.80;;;;;;5022269;28;8765;-72
2022/03/26 12:11:30;;;;;;;;;50.00;40.00;31.40;94.50;;;;;;5037077;28;8800;-73
2022/03/26 12:14:03;;;;;;;;;41.75;35.75;31.50;93.50;;;;;;5037278;28;8765;-60
2022/03/26 12:16:52;;;;;;;;;53.50;42.50;31.50;94.10;;;;;;5037280;28;8779;-72
2022/03/26 12:19:46;;;;;;;;;54.75;45.00;31.30;94.80;;;;;;5037786;28;8741;-65
2022/03/26 12:22:26;;;;;;;;;57.20;46.60;31.20;94.90;;;;;;5037897;28;8757;-74
2022/03/26 12:24:57;;;;;;;;;57.80;46.60;31.20;95.10;;;;;;5037185;28;8741;-74
2022/03/26 12:27:24;;;;;;;;;57.75;47.75;31.10;95.00;;;;;;5036800;28;8781;-73
2022/03/26 12:29:53;;;;;;;;;52.00;44.25;31.20;94.20;;;;;;5036682;28;8897;-66
2022/03/26 12:32:20;;;;;;;;;54.50;46.25;31.20;93.80;;;;;;5039410;28;8778;-63
2022/03/26 12:34:58;;;;;;;;;56.00;45.00;31.10;93.50;;;;;;5072072;28;8742;-74
2022/03/26 12:37:25;;;;;;;;;53.00;44.00;31.10;93.60;;;;;;5056353;28;8770;-72
2022/03/26 12:39:53;;;;;;;;;50.25;43.00;31.10;93.80;;;;;;5057123;28;9384;-75
2022/03/26 12:42:19;;;;;;;;;55.75;45.00;31.10;93.60;;;;;;5056478;28;8798;-71
2022/03/26 12:44:46;;;;;;;;;42.75;35.00;31.00;93.70;;;;;;5038854;28;8776;-62
2022/03/26 12:47:31;;;;;;;;;54.50;43.75;31.10;94.00;;;;;;5035827;28;8761;-71
2022/03/26 12:49:58;;;;;;;;;47.50;40.75;31.00;93.20;;;;;;5037048;28;9128;-59
2022/03/26 12:52:25;;;;;;;;;49.50;41.75;31.10;92.20;;;;;;5036188;28;8740;-69
2022/03/26 12:54:55;;;;;;;;;46.00;36.75;31.10;91.00;;;;;;5037082;28;8826;-53
2022/03/26 12:57:22;;;;;;;;;52.25;41.25;31.20;93.00;;;;;;5036221;28;8784;-72